Time;durP1;ratioP1;P1;durP2;ratioP2;P2;SDS_P1;SDS_P2;PMS_P1;PMS_P2;Temp;Humidity;BMP_temperature;BMP_pressure;BME280_temperature;BME280_humidity;BME280_pressure;Samples;Min_cycle;Max_cycle;Signal;HPM_P1;HPM_P2
2021/03/04 00:01:12;;;;;;;72.07;32.03;;;3.30;99.90;;;;;;5150865;28;20599;-73
2021/03/04 00:03:44;;;;;;;67.17;30.33;;;3.30;99.90;;;;;;5150287;28;20666;-75
2021/03/04 00:06:15;;;;;;;72.83;31.43;;;3.30;99.90;;;;;;5150388;28;20189;-72
2021/03/04 00:08:47;;;;;;;68.97;31.13;;;3.30;99.90;;;;;;5150303;28;20201;-74
2021/03/04 00:11:18;;;;;;;72.23;30.40;;;3.30;99.90;;;;;;5150644;28;20219;-73
2021/03/04 00:13:50;;;;;;;72.17;31.67;;;3.30;99.90;;;;;;5133186;28;20219;-72
2021/03/04 00:16:21;;;;;;;76.07;33.07;;;3.30;99.90;;;;;;5119212;28;20224;-74
2021/03/04 00:18:53;;;;;;;69.53;32.07;;;3.30;99.90;;;;;;5153951;28;20299;-74
2021/03/04 00:21:25;;;;;;;70.47;30.50;;;3.30;99.90;;;;;;5138290;28;20188;-71
2021/03/04 00:23:56;;;;;;;66.90;30.87;;;3.30;99.90;;;;;;5155695;28;20212;-73
2021/03/04 00:26:28;;;;;;;70.93;32.70;;;3.30;99.90;;;;;;5153597;28;20574;-71
2021/03/04 00:29:00;;;;;;;72.67;32.30;;;3.30;99.90;;;;;;5153574;28;20230;-71
2021/03/04 00:31:31;;;;;;;73.17;31.83;;;3.30;99.90;;;;;;5153065;28;20208;-70
2021/03/04 00:34:03;;;;;;;69.53;31.03;;;3.20;99.90;;;;;;5135548;28;20594;-70
2021/03/04 00:36:34;;;;;;;74.53;32.40;;;3.20;99.90;;;;;;5153616;28;20202;-72
2021/03/04 00:39:07;;;;;;;69.87;30.33;;;3.20;99.90;;;;;;5152479;28;20242;-73
2021/03/04 00:41:39;;;;;;;70.87;31.27;;;3.20;99.90;;;;;;5151938;28;20196;-71
2021/03/04 00:44:11;;;;;;;68.00;29.77;;;3.10;99.90;;;;;;5150092;28;20200;-69
2021/03/04 00:46:42;;;;;;;66.73;31.37;;;3.10;99.90;;;;;;5150405;28;20208;-69
2021/03/04 00:49:14;;;;;;;68.53;30.57;;;3.10;99.90;;;;;;5151604;28;20507;-71
2021/03/04 00:51:45;;;;;;;66.07;31.00;;;3.10;99.90;;;;;;5152479;28;20612;-70
2021/03/04 00:54:17;;;;;;;66.93;31.33;;;3.10;99.90;;;;;;5152309;28;20644;-69
2021/03/04 00:56:48;;;;;;;73.07;31.80;;;3.10;99.90;;;;;;5151597;28;20644;-70
2021/03/04 00:59:20;;;;;;;71.63;32.27;;;3.10;99.90;;;;;;5150822;28;20196;-70
2021/03/04 01:01:51;;;;;;;73.90;31.37;;;3.10;99.90;;;;;;5133771;28;20243;-71
2021/03/04 01:04:23;;;;;;;60.63;29.53;;;3.10;99.90;;;;;;5151779;28;20196;-72
2021/03/04 01:06:54;;;;;;;69.80;30.40;;;3.20;99.90;;;;;;5151713;28;20207;-71
2021/03/04 01:09:26;;;;;;;78.90;33.17;;;3.20;99.90;;;;;;5132428;28;20196;-71
2021/03/04 01:11:58;;;;;;;65.90;30.07;;;3.20;99.90;;;;;;5149777;28;20208;-72
2021/03/04 01:14:29;;;;;;;67.40;31.07;;;3.20;99.90;;;;;;5149983;28;20204;-71
2021/03/04 01:17:02;;;;;;;67.73;31.33;;;3.20;99.90;;;;;;5149111;28;20247;-71
2021/03/04 01:19:33;;;;;;;67.60;30.43;;;3.10;99.90;;;;;;5131952;28;20240;-71
2021/03/04 01:22:05;;;;;;;67.00;30.43;;;3.10;99.90;;;;;;5149499;28;20196;-69
2021/03/04 01:24:37;;;;;;;65.03;29.90;;;3.10;99.90;;;;;;5149286;28;20200;-69
2021/03/04 01:27:08;;;;;;;66.20;30.13;;;3.10;99.90;;;;;;5150525;28;20192;-71
2021/03/04 01:29:40;;;;;;;63.53;29.20;;;3.10;99.90;;;;;;5151359;28;20200;-70
2021/03/04 01:32:11;;;;;;;64.27;28.97;;;3.00;99.90;;;;;;5150726;28;20196;-72
2021/03/04 01:34:43;;;;;;;64.07;30.43;;;3.00;99.90;;;;;;5150924;28;20201;-69
2021/03/04 01:37:14;;;;;;;62.07;29.67;;;3.00;99.90;;;;;;5150737;28;20558;-73
2021/03/04 01:39:46;;;;;;;60.30;28.50;;;3.00;99.90;;;;;;5150336;28;20197;-72
2021/03/04 01:42:18;;;;;;;65.40;30.20;;;2.90;99.90;;;;;;5150869;28;20569;-73
2021/03/04 01:44:49;;;;;;;62.20;29.67;;;2.90;99.90;;;;;;5132734;28;20192;-68
2021/03/04 01:47:21;;;;;;;64.13;29.23;;;2.90;99.90;;;;;;5148831;28;20202;-72
2021/03/04 01:49:53;;;;;;;69.77;31.53;;;2.90;99.90;;;;;;5148579;28;20628;-73
2021/03/04 01:52:26;;;;;;;70.63;31.67;;;2.90;99.90;;;;;;5148514;28;20235;-71
2021/03/04 01:54:59;;;;;;;67.33;29.87;;;3.00;99.90;;;;;;5148505;28;20193;-72
2021/03/04 01:57:32;;;;;;;66.73;32.37;;;3.10;99.90;;;;;;5148068;28;20220;-71
2021/03/04 02:00:08;;;;;;;73.90;31.97;;;3.30;99.90;;;;;;5148053;28;20203;-73
2021/03/04 02:02:39;;;;;;;74.83;34.53;;;3.30;99.90;;;;;;5148176;28;20199;-72
2021/03/04 02:05:13;;;;;;;89.13;39.23;;;3.40;99.90;;;;;;5147859;28;20203;-72
2021/03/04 02:08:03;;;;;;;85.03;39.60;;;3.40;99.90;;;;;;5147879;28;20196;-70
2021/03/04 02:11:17;;;;;;;95.17;41.73;;;3.30;99.90;;;;;;5148202;28;20599;-74
2021/03/04 02:13:56;;;;;;;97.73;42.00;;;3.30;99.90;;;;;;5047126;29;20243;-73
2021/03/04 02:17:01;;;;;;;94.57;40.17;;;3.20;99.90;;;;;;5047710;29;20730;-72
2021/03/04 02:19:53;;;;;;;97.90;41.33;;;3.20;99.90;;;;;;5047181;29;20239;-70
2021/03/04 02:22:42;;;;;;;97.80;42.07;;;3.20;99.90;;;;;;5047361;29;20604;-70
2021/03/04 02:25:28;;;;;;;93.70;41.53;;;3.20;99.90;;;;;;5047356;29;20207;-72
2021/03/04 02:28:01;;;;;;;98.13;42.33;;;3.10;99.90;;;;;;5047284;29;20200;-69
2021/03/04 02:30:37;;;;;;;99.00;43.03;;;3.10;99.90;;;;;;5047116;29;20207;-72
2021/03/04 02:33:14;;;;;;;93.33;39.10;;;3.00;99.90;;;;;;5046917;29;20207;-72
2021/03/04 02:35:47;;;;;;;79.33;34.27;;;3.00;99.90;;;;;;5046955;29;20195;-71
2021/03/04 02:38:20;;;;;;;75.87;33.53;;;2.90;99.90;;;;;;5031556;29;20307;-71
2021/03/04 02:40:54;;;;;;;73.73;32.03;;;2.80;99.90;;;;;;5047038;29;20215;-72
2021/03/04 02:43:27;;;;;;;77.00;30.97;;;2.70;99.90;;;;;;5046804;29;20203;-72
2021/03/04 02:45:59;;;;;;;71.70;31.40;;;2.60;99.90;;;;;;5047105;29;20219;-73
2021/03/04 02:48:33;;;;;;;76.47;32.50;;;2.50;99.90;;;;;;5046635;29;20196;-70
2021/03/04 02:51:06;;;;;;;75.90;31.63;;;2.50;99.90;;;;;;5109960;28;20214;-70
2021/03/04 02:53:38;;;;;;;77.43;32.53;;;2.40;99.90;;;;;;5147170;28;20200;-69
2021/03/04 02:56:11;;;;;;;75.70;32.17;;;2.40;99.90;;;;;;5147277;28;20231;-70
2021/03/04 02:58:45;;;;;;;74.13;31.37;;;2.40;99.90;;;;;;5147109;28;20231;-70
2021/03/04 03:01:19;;;;;;;74.63;32.00;;;2.40;99.90;;;;;;5146753;28;20353;-69
2021/03/04 03:03:52;;;;;;;70.63;31.20;;;2.30;99.90;;;;;;5146943;28;20207;-70
2021/03/04 03:06:26;;;;;;;71.67;30.77;;;2.30;99.90;;;;;;5146758;28;20196;-71
2021/03/04 03:08:58;;;;;;;59.60;26.63;;;2.30;99.90;;;;;;5147086;28;20297;-71
2021/03/04 03:11:30;;;;;;;48.73;23.50;;;2.30;99.90;;;;;;5147138;28;20555;-70
2021/03/04 03:14:02;;;;;;;47.97;22.37;;;2.10;99.90;;;;;;5129734;28;20204;-72
2021/03/04 03:16:33;;;;;;;47.43;22.27;;;2.00;99.90;;;;;;5130624;28;20192;-71
2021/03/04 03:19:06;;;;;;;48.07;22.43;;;2.00;99.90;;;;;;5144157;28;20235;-70
2021/03/04 03:21:38;;;;;;;41.80;20.20;;;1.90;99.90;;;;;;5147846;28;20211;-72
2021/03/04 03:24:10;;;;;;;44.30;19.90;;;1.80;99.90;;;;;;5146735;28;20218;-69
2021/03/04 03:26:42;;;;;;;46.90;21.73;;;1.80;99.90;;;;;;5148030;28;20552;-70
2021/03/04 03:29:14;;;;;;;46.10;20.27;;;1.70;99.90;;;;;;5147179;28;20192;-70
2021/03/04 03:31:49;;;;;;;41.20;19.43;;;1.80;99.90;;;;;;5147350;28;20192;-69
2021/03/04 03:34:23;;;;;;;44.10;20.23;;;1.70;99.90;;;;;;5146787;28;20200;-72
2021/03/04 03:36:55;;;;;;;43.47;20.47;;;1.60;99.90;;;;;;5147284;28;20196;-70
2021/03/04 03:39:27;;;;;;;48.30;21.60;;;1.60;99.90;;;;;;5131035;28;20224;-70
2021/03/04 03:42:00;;;;;;;40.97;19.30;;;1.60;99.90;;;;;;5150213;28;20294;-70
2021/03/04 03:44:33;;;;;;;37.83;17.33;;;1.50;99.90;;;;;;5149415;28;20200;-69
2021/03/04 03:47:06;;;;;;;36.87;15.17;;;1.50;99.90;;;;;;5149703;28;20287;-70
2021/03/04 03:49:39;;;;;;;28.57;13.57;;;1.40;99.90;;;;;;5148798;28;20207;-70
2021/03/04 03:52:11;;;;;;;32.73;14.33;;;1.30;99.90;;;;;;5150828;28;20220;-70
2021/03/04 03:54:43;;;;;;;29.57;13.87;;;1.20;99.90;;;;;;5149157;28;20203;-69
2021/03/04 03:57:15;;;;;;;29.97;13.97;;;1.20;99.90;;;;;;5148714;28;20207;-70
2021/03/04 03:59:47;;;;;;;29.63;13.60;;;1.20;99.90;;;;;;5146855;28;20200;-70
2021/03/04 04:02:19;;;;;;;29.13;13.97;;;1.20;99.90;;;;;;5146670;28;20193;-69
2021/03/04 04:04:51;;;;;;;32.77;14.67;;;1.20;99.90;;;;;;5146113;28;20201;-69
2021/03/04 04:07:23;;;;;;;37.53;14.33;;;1.10;99.90;;;;;;5146504;28;20196;-68
2021/03/04 04:09:56;;;;;;;31.10;14.97;;;1.10;99.90;;;;;;5146833;28;20623;-69
2021/03/04 04:12:29;;;;;;;31.87;13.97;;;1.10;99.90;;;;;;5147020;28;20197;-69
2021/03/04 04:15:02;;;;;;;31.20;13.07;;;1.10;99.90;;;;;;5146917;28;20207;-71
2021/03/04 04:21:30;;;;;;;32.63;12.30;;;1.10;99.90;;;;;;5141268;28;20314;-71
2021/03/04 04:24:02;;;;;;;26.27;11.43;;;1.10;99.90;;;;;;5146159;28;20207;-69
2021/03/04 04:26:33;;;;;;;29.63;12.17;;;1.10;99.90;;;;;;5146019;28;20221;-73
2021/03/04 04:29:05;;;;;;;25.70;11.50;;;1.10;99.90;;;;;;5146443;28;20286;-77
2021/03/04 04:31:36;;;;;;;25.33;10.17;;;1.20;99.90;;;;;;5147530;28;20267;-73
2021/03/04 04:34:08;;;;;;;23.13;10.27;;;1.10;99.90;;;;;;5147264;28;20211;-76
2021/03/04 04:36:39;;;;;;;23.80;10.77;;;1.10;99.90;;;;;;5148783;28;20550;-71
2021/03/04 04:39:11;;;;;;;23.03;9.70;;;1.20;99.90;;;;;;5150216;28;20226;-70
2021/03/04 04:41:42;;;;;;;23.13;10.00;;;1.20;99.90;;;;;;5151040;28;20200;-71
2021/03/04 04:44:14;;;;;;;24.00;9.33;;;1.20;99.90;;;;;;5151254;28;20567;-74
2021/03/04 04:46:46;;;;;;;24.17;9.67;;;1.20;99.90;;;;;;5150215;28;20203;-70
2021/03/04 04:49:18;;;;;;;21.63;10.27;;;1.20;99.90;;;;;;5149657;28;20203;-72
2021/03/04 04:51:49;;;;;;;21.93;9.93;;;1.20;99.90;;;;;;5151085;28;20192;-71
2021/03/04 04:54:21;;;;;;;19.13;8.67;;;1.30;99.90;;;;;;5153671;28;20553;-72
2021/03/04 04:56:53;;;;;;;23.73;10.07;;;1.30;99.90;;;;;;5150831;28;20231;-70
2021/03/04 04:59:24;;;;;;;21.83;9.83;;;1.30;99.90;;;;;;5155733;28;20230;-70
2021/03/04 05:01:56;;;;;;;23.73;9.93;;;1.30;99.90;;;;;;5151450;28;20193;-70
2021/03/04 05:04:28;;;;;;;21.97;10.37;;;1.30;99.90;;;;;;5150321;28;20208;-70
2021/03/04 05:06:59;;;;;;;19.07;10.23;;;1.30;99.90;;;;;;5149572;28;20200;-70
2021/03/04 05:09:31;;;;;;;23.20;9.37;;;1.30;99.90;;;;;;5149403;28;20192;-68
2021/03/04 05:12:03;;;;;;;22.17;10.40;;;1.30;99.90;;;;;;5132298;28;20201;-70
2021/03/04 05:14:35;;;;;;;19.57;9.13;;;1.30;99.90;;;;;;5148952;28;20203;-68
2021/03/04 05:17:06;;;;;;;15.73;8.27;;;1.30;99.90;;;;;;5149347;28;20201;-69
2021/03/04 05:19:38;;;;;;;13.63;6.53;;;1.30;99.90;;;;;;5149408;28;20228;-69
2021/03/04 05:22:09;;;;;;;8.97;5.77;;;1.20;99.90;;;;;;5149622;28;20203;-68
2021/03/04 05:24:41;;;;;;;12.10;5.90;;;1.20;99.90;;;;;;5151536;28;20643;-70
2021/03/04 05:27:13;;;;;;;10.50;5.70;;;1.20;99.90;;;;;;5151104;28;20295;-68
2021/03/04 05:29:44;;;;;;;7.83;5.50;;;1.10;99.90;;;;;;5134497;28;20200;-70
2021/03/04 05:32:19;;;;;;;10.60;6.03;;;1.10;99.90;;;;;;5135223;28;20204;-69
2021/03/04 05:34:50;;;;;;;12.03;7.00;;;1.00;99.90;;;;;;5150889;28;20199;-69
2021/03/04 05:37:22;;;;;;;11.67;6.80;;;1.10;99.90;;;;;;5150704;28;20193;-68
2021/03/04 05:39:54;;;;;;;12.77;6.27;;;1.10;99.90;;;;;;5150759;28;20200;-72
2021/03/04 05:42:31;;;;;;;11.97;6.80;;;1.00;99.90;;;;;;5151781;28;20195;-69
2021/03/04 05:45:03;;;;;;;10.87;6.33;;;0.90;99.90;;;;;;5151349;28;20196;-69
2021/03/04 05:47:35;;;;;;;11.67;6.63;;;0.90;99.90;;;;;;5151233;28;20298;-70
2021/03/04 05:50:07;;;;;;;11.57;6.77;;;0.90;99.90;;;;;;5149849;28;20200;-71
2021/03/04 05:52:43;;;;;;;13.77;8.00;;;0.90;99.90;;;;;;5152643;28;20544;-77
2021/03/04 05:55:16;;;;;;;16.20;8.27;;;0.90;99.90;;;;;;5155044;28;20204;-72
2021/03/04 05:57:51;;;;;;;15.17;9.00;;;0.90;99.90;;;;;;5150712;28;20217;-70
2021/03/04 06:00:23;;;;;;;14.43;8.27;;;0.90;99.90;;;;;;5148780;28;20234;-72
2021/03/04 06:02:55;;;;;;;13.93;8.00;;;0.90;99.90;;;;;;5131666;28;20589;-73
2021/03/04 06:05:27;;;;;;;15.87;9.07;;;1.00;99.90;;;;;;5148808;28;20644;-70
2021/03/04 06:08:02;;;;;;;13.10;8.47;;;1.00;99.90;;;;;;5148451;28;20196;-70
2021/03/04 06:10:34;;;;;;;15.23;8.60;;;1.00;99.90;;;;;;5147334;28;20624;-73
2021/03/04 06:13:08;;;;;;;13.73;8.10;;;1.00;99.90;;;;;;5147848;28;20640;-71
2021/03/04 06:15:40;;;;;;;13.83;8.07;;;1.00;99.90;;;;;;5147599;28;20205;-68
2021/03/04 06:18:11;;;;;;;12.97;7.73;;;1.00;99.90;;;;;;5147284;28;20224;-69
2021/03/04 06:20:44;;;;;;;13.10;7.50;;;1.00;99.90;;;;;;5141123;28;20236;-70
2021/03/04 06:23:16;;;;;;;15.37;8.63;;;1.10;99.90;;;;;;5147070;28;20200;-71
2021/03/04 06:25:48;;;;;;;12.23;7.77;;;1.00;99.90;;;;;;5147468;28;20203;-68
2021/03/04 06:28:30;;;;;;;16.23;8.07;;;1.00;99.90;;;;;;5146969;28;20189;-72
2021/03/04 06:31:02;;;;;;;12.47;7.50;;;1.00;99.90;;;;;;5146993;28;20569;-69
2021/03/04 06:37:20;;;;;;;8.93;5.23;;;1.00;99.90;;;;;;5146686;28;20591;-70
2021/03/04 06:39:51;;;;;;;6.67;4.53;;;1.00;99.90;;;;;;5130361;28;20625;-69
2021/03/04 06:42:23;;;;;;;10.07;5.97;;;1.00;99.90;;;;;;5129941;28;20583;-70
2021/03/04 06:44:55;;;;;;;10.03;6.43;;;1.00;99.90;;;;;;5130747;28;20193;-71
2021/03/04 06:47:28;;;;;;;8.93;5.37;;;1.00;99.90;;;;;;5147988;28;20208;-71
2021/03/04 06:53:56;;;;;;;7.27;4.87;;;1.00;99.90;;;;;;5148242;28;20187;-71
2021/03/04 06:56:29;;;;;;;7.20;5.33;;;1.10;99.90;;;;;;5130348;28;20207;-74
2021/03/04 06:59:02;;;;;;;10.00;6.23;;;1.10;99.90;;;;;;5148319;28;20311;-74
2021/03/04 07:01:39;;;;;;;9.77;5.80;;;1.10;99.90;;;;;;5148741;28;20193;-72
2021/03/04 07:04:13;;;;;;;14.43;7.00;;;1.10;99.90;;;;;;5150623;28;20198;-72
2021/03/04 07:06:46;;;;;;;11.23;7.13;;;1.20;99.90;;;;;;5151393;28;20207;-74
2021/03/04 07:09:19;;;;;;;11.93;7.40;;;1.20;99.90;;;;;;5151472;28;20690;-73
2021/03/04 07:11:52;;;;;;;10.73;5.87;;;1.30;99.90;;;;;;5150815;28;20188;-71
2021/03/04 07:14:26;;;;;;;10.33;6.00;;;1.30;99.90;;;;;;5131376;28;20584;-70
2021/03/04 07:17:00;;;;;;;8.50;5.70;;;1.30;99.90;;;;;;5132753;28;20204;-72
2021/03/04 07:19:37;;;;;;;11.00;6.23;;;1.30;99.90;;;;;;5149664;28;20226;-70
2021/03/04 07:22:10;;;;;;;10.70;7.00;;;1.30;99.90;;;;;;5130503;28;20239;-71
2021/03/04 07:24:44;;;;;;;9.80;6.67;;;1.40;99.90;;;;;;5147527;28;20223;-71
2021/03/04 07:27:17;;;;;;;10.47;7.17;;;1.50;99.90;;;;;;5130324;28;20192;-71
2021/03/04 07:29:51;;;;;;;15.50;8.03;;;1.50;99.90;;;;;;5146753;28;20200;-72
2021/03/04 07:32:23;;;;;;;12.73;7.47;;;1.60;99.90;;;;;;5146868;28;20259;-72
2021/03/04 07:34:55;;;;;;;10.13;6.67;;;1.60;99.90;;;;;;5146951;28;20211;-71
2021/03/04 07:37:26;;;;;;;9.97;6.60;;;1.70;99.90;;;;;;5146316;28;20291;-73
2021/03/04 07:40:00;;;;;;;10.73;6.17;;;1.70;99.90;;;;;;5146521;28;20266;-73
2021/03/04 07:42:31;;;;;;;10.47;6.90;;;1.70;99.90;;;;;;5128933;28;20279;-71
2021/03/04 07:45:11;;;;;;;9.63;6.93;;;1.80;99.90;;;;;;5146071;28;20196;-71
2021/03/04 07:47:42;;;;;;;11.67;6.23;;;1.80;99.90;;;;;;5146036;28;20192;-72
2021/03/04 07:50:20;;;;;;;9.87;6.53;;;2.00;99.90;;;;;;5145947;28;20255;-70
2021/03/04 07:53:03;;;;;;;10.00;6.57;;;2.10;99.90;;;;;;5146425;28;20565;-69
2021/03/04 07:55:38;;;;;;;12.83;7.47;;;2.20;99.90;;;;;;5146910;28;20208;-69
2021/03/04 07:58:14;;;;;;;14.13;6.80;;;2.40;99.90;;;;;;5129767;28;20220;-75
2021/03/04 08:00:45;;;;;;;11.30;7.53;;;2.50;99.90;;;;;;5146722;28;20192;-73
2021/03/04 08:03:17;;;;;;;11.00;6.67;;;2.60;99.90;;;;;;5146236;28;20195;-75
2021/03/04 08:05:49;;;;;;;10.03;6.47;;;2.60;99.90;;;;;;5146062;28;20661;-72
2021/03/04 08:08:23;;;;;;;10.63;6.37;;;2.70;99.90;;;;;;5141639;28;20203;-74
2021/03/04 08:10:54;;;;;;;11.15;7.45;;;2.70;99.90;;;;;;5146581;28;20756;-73
2021/03/04 08:13:43;;;;;;;8.67;6.53;;;2.80;99.90;;;;;;5103573;28;20403;-69
2021/03/04 08:16:21;;;;;;;10.33;6.57;;;2.90;99.90;;;;;;4966613;28;20420;-72
2021/03/04 08:22:57;;;;;;;13.23;7.47;;;2.90;99.90;;;;;;5147056;28;20282;-70
2021/03/04 08:25:31;;;;;;;9.60;8.13;;;3.10;99.90;;;;;;5150211;28;20243;-72
2021/03/04 08:28:06;;;;;;;9.10;6.10;;;3.10;99.90;;;;;;5150029;28;20200;-70
2021/03/04 08:30:43;;;;;;;9.23;5.73;;;3.10;99.90;;;;;;5149542;28;20192;-73
2021/03/04 08:33:15;;;;;;;10.67;7.10;;;3.20;99.90;;;;;;5149915;28;20199;-72
2021/03/04 08:35:49;;;;;;;10.60;7.03;;;3.20;99.90;;;;;;5149474;28;20263;-71
2021/03/04 08:38:21;;;;;;;8.60;5.90;;;3.30;99.90;;;;;;5132429;28;20569;-74
2021/03/04 08:40:56;;;;;;;8.13;5.67;;;3.30;99.90;;;;;;5149915;28;20199;-71
2021/03/04 08:43:29;;;;;;;8.50;6.17;;;3.30;99.90;;;;;;5148907;28;20482;-75
2021/03/04 08:46:08;;;;;;;9.80;6.00;;;3.30;99.90;;;;;;5150538;28;20200;-73
2021/03/04 08:48:45;;;;;;;6.53;4.87;;;3.20;99.90;;;;;;5150188;28;20211;-73
2021/03/04 08:51:20;;;;;;;6.60;4.97;;;3.20;99.90;;;;;;5143702;28;20196;-72
2021/03/04 08:54:05;;;;;;;8.60;6.00;;;3.30;99.90;;;;;;5123611;28;20196;-74
2021/03/04 08:56:37;;;;;;;8.73;5.60;;;3.40;99.90;;;;;;5133217;28;20210;-76
2021/03/04 08:59:19;;;;;;;9.18;7.25;;;3.40;99.90;;;;;;5148635;28;20968;-72
2021/03/04 09:01:51;;;;;;;8.83;5.83;;;3.40;99.90;;;;;;5149761;28;20284;-73
2021/03/04 09:08:11;;;;;;;8.67;5.80;;;3.50;99.90;;;;;;5148392;28;20604;-72
2021/03/04 09:10:46;;;;;;;11.17;6.20;;;3.50;99.90;;;;;;5148915;28;20540;-73
2021/03/04 09:13:24;;;;;;;10.33;5.90;;;3.60;99.90;;;;;;5148420;28;20231;-74
2021/03/04 09:16:04;;;;;;;8.23;5.53;;;3.60;99.90;;;;;;5148340;28;20584;-74
2021/03/04 09:18:45;;;;;;;11.67;5.60;;;3.70;99.90;;;;;;5148881;28;20255;-74
2021/03/04 09:25:58;;;;;;;9.23;5.00;;;3.70;99.90;;;;;;5129412;29;20189;-75
2021/03/04 09:28:30;;;;;;;10.77;6.00;;;3.70;99.90;;;;;;5129385;28;20197;-72
2021/03/04 09:31:15;;;;;;;10.57;5.67;;;3.60;99.90;;;;;;5129648;28;20552;-74
2021/03/04 09:33:57;;;;;;;12.23;5.70;;;3.50;99.90;;;;;;5128152;29;20197;-73
2021/03/04 09:40:30;;;;;;;11.33;6.07;;;3.50;99.90;;;;;;5128789;29;20192;-74
2021/03/04 09:43:12;;;;;;;10.33;5.87;;;3.40;99.90;;;;;;5128622;29;20193;-76
2021/03/04 09:45:49;;;;;;;11.90;6.60;;;3.40;99.90;;;;;;5130981;29;20200;-75
2021/03/04 09:48:38;;;;;;;15.17;9.00;;;3.30;99.90;;;;;;5128555;29;20624;-80
2021/03/04 09:51:09;;;;;;;17.20;9.50;;;3.30;99.90;;;;;;5128078;29;20196;-74
2021/03/04 09:53:48;;;;;;;14.87;6.70;;;3.50;99.90;;;;;;5128560;28;20201;-74
2021/03/04 09:56:21;;;;;;;12.00;7.27;;;3.50;99.90;;;;;;5128203;28;20200;-75
2021/03/04 09:58:53;;;;;;;8.90;4.97;;;3.50;99.90;;;;;;5127965;28;20193;-75
2021/03/04 10:01:33;;;;;;;8.67;5.40;;;3.60;99.90;;;;;;5127753;28;20193;-75
2021/03/04 10:04:07;;;;;;;12.40;5.70;;;3.40;99.90;;;;;;5128327;28;20614;-74
2021/03/04 10:06:38;;;;;;;9.20;5.50;;;3.30;99.90;;;;;;5126746;29;20260;-75
2021/03/04 10:09:11;;;;;;;6.93;5.13;;;3.30;99.90;;;;;;5128006;28;20193;-74
2021/03/04 10:11:43;;;;;;;11.27;5.50;;;3.30;99.90;;;;;;5128372;28;20201;-74
2021/03/04 10:14:14;;;;;;;9.97;5.23;;;3.30;99.90;;;;;;5119443;29;20204;-77
2021/03/04 10:16:55;;;;;;;8.87;4.90;;;3.30;99.90;;;;;;5126821;28;20287;-75
2021/03/04 10:23:15;;;;;;;8.63;4.83;;;3.30;99.90;;;;;;5131716;28;20326;-76
2021/03/04 10:25:48;;;;;;;8.03;5.07;;;3.40;99.90;;;;;;5149946;28;20192;-76
2021/03/04 10:28:20;;;;;;;9.70;4.87;;;3.40;99.90;;;;;;5151767;28;20196;-79
2021/03/04 10:30:51;;;;;;;8.97;5.37;;;3.30;99.90;;;;;;5138052;28;20568;-78
2021/03/04 10:33:27;;;;;;;9.97;5.23;;;3.30;99.90;;;;;;5161830;28;20201;-78
2021/03/04 10:39:46;;;;;;;9.67;5.20;;;3.30;99.90;;;;;;5157525;28;20216;-77
2021/03/04 10:42:18;;;;;;;9.90;5.03;;;3.40;99.90;;;;;;5157251;28;20192;-77
2021/03/04 10:44:59;;;;;;;7.57;4.30;;;3.50;99.90;;;;;;5152254;28;20193;-77
2021/03/04 10:47:31;;;;;;;9.20;5.10;;;3.60;99.90;;;;;;5149202;28;20219;-75
2021/03/04 10:50:05;;;;;;;8.73;5.53;;;3.60;99.90;;;;;;5150196;28;20197;-78
2021/03/04 10:52:36;;;;;;;13.03;6.20;;;3.60;99.90;;;;;;5131976;28;20196;-77
2021/03/04 10:55:09;;;;;;;10.73;5.77;;;3.50;99.90;;;;;;5147775;28;20207;-75
2021/03/04 10:57:40;;;;;;;14.35;7.10;;;3.50;99.90;;;;;;5147830;28;20428;-76
2021/03/04 11:00:13;;;;;;;10.93;5.93;;;3.40;99.90;;;;;;5148568;28;20224;-79
2021/03/04 11:02:45;;;;;;;9.37;5.07;;;3.40;99.90;;;;;;5147373;28;20198;-73
2021/03/04 11:05:17;;;;;;;8.43;5.23;;;3.30;99.90;;;;;;5147042;28;20200;-73
2021/03/04 11:07:51;;;;;;;10.85;6.53;;;3.30;99.90;;;;;;5146570;28;20798;-76
2021/03/04 11:10:23;;;;;;;14.53;7.03;;;3.30;99.90;;;;;;5146050;28;20207;-71
2021/03/04 11:12:55;;;;;;;12.20;7.32;;;3.30;99.90;;;;;;5128811;28;20432;-73
2021/03/04 11:15:27;;;;;;;9.10;6.17;;;3.20;99.90;;;;;;5146208;28;20707;-72
2021/03/04 11:17:58;;;;;;;10.47;6.00;;;3.20;99.90;;;;;;5146091;28;20575;-76
2021/03/04 11:20:30;;;;;;;13.50;5.83;;;3.30;99.90;;;;;;5145961;28;20667;-76
2021/03/04 11:23:02;;;;;;;10.40;6.00;;;3.30;99.90;;;;;;5146177;28;20285;-73
2021/03/04 11:25:33;;;;;;;13.97;6.13;;;3.40;99.90;;;;;;5145786;28;20246;-72
2021/03/04 11:28:08;;;;;;;10.23;6.10;;;3.40;99.90;;;;;;5139853;28;20219;-71
2021/03/04 11:30:40;;;;;;;11.27;6.10;;;3.50;99.90;;;;;;5139538;28;20287;-76
2021/03/04 11:33:17;;;;;;;11.23;6.10;;;3.50;99.90;;;;;;5141828;28;20203;-73
2021/03/04 11:35:49;;;;;;;11.87;6.10;;;3.50;99.90;;;;;;5145242;28;20196;-73
2021/03/04 11:38:21;;;;;;;11.83;6.97;;;3.60;99.90;;;;;;5145507;28;20216;-73
2021/03/04 11:40:53;;;;;;;8.50;5.30;;;3.60;99.90;;;;;;5146202;28;20192;-74
2021/03/04 11:43:24;;;;;;;9.37;5.43;;;3.60;99.90;;;;;;5145922;28;20279;-76
2021/03/04 11:45:56;;;;;;;10.07;6.00;;;3.50;99.90;;;;;;5147067;28;20295;-76
2021/03/04 11:48:29;;;;;;;11.77;6.13;;;3.40;99.90;;;;;;5132841;28;20204;-79
2021/03/04 11:51:01;;;;;;;8.63;5.70;;;3.20;99.90;;;;;;5110389;28;20379;-75
2021/03/04 11:53:32;;;;;;;9.67;4.83;;;3.20;99.90;;;;;;5149707;28;20574;-77
2021/03/04 11:56:19;;;;;;;9.20;5.10;;;3.10;99.90;;;;;;5149313;28;20226;-75
2021/03/04 11:58:51;;;;;;;10.52;6.32;;;3.00;99.90;;;;;;5147029;28;20443;-79
2021/03/04 12:01:22;;;;;;;10.47;5.97;;;2.90;99.90;;;;;;5150956;28;20283;-78
2021/03/04 12:03:54;;;;;;;10.93;5.13;;;2.90;99.90;;;;;;5150957;28;20302;-75
2021/03/04 12:06:26;;;;;;;8.97;5.27;;;2.90;99.90;;;;;;5150288;28;20232;-75
2021/03/04 12:08:57;;;;;;;10.53;5.30;;;2.80;99.90;;;;;;5150871;28;20197;-79
2021/03/04 12:11:49;;;;;;;9.03;4.87;;;2.80;99.90;;;;;;5150999;28;20208;-77
2021/03/04 12:14:20;;;;;;;10.33;6.00;;;2.70;99.90;;;;;;5149927;28;20764;-74
2021/03/04 12:16:52;;;;;;;8.63;5.03;;;2.70;99.90;;;;;;5151204;28;20216;-75
2021/03/04 12:19:24;;;;;;;7.40;5.07;;;2.70;99.90;;;;;;5136783;28;20703;-77
2021/03/04 12:21:56;;;;;;;10.40;5.37;;;2.70;99.90;;;;;;5156086;28;20272;-76
2021/03/04 12:24:27;;;;;;;7.63;4.17;;;2.60;99.90;;;;;;5138726;28;20327;-77
2021/03/04 12:26:59;;;;;;;6.90;3.27;;;2.60;99.90;;;;;;5156751;28;20189;-77
2021/03/04 12:29:31;;;;;;;4.63;2.22;;;2.60;99.90;;;;;;5154596;28;20430;-78
2021/03/04 12:32:03;;;;;;;5.53;2.00;;;2.40;99.90;;;;;;5153318;28;20199;-76
2021/03/04 12:34:35;;;;;;;3.37;1.67;;;2.20;99.90;;;;;;5141754;28;20260;-79
2021/03/04 12:37:07;;;;;;;4.10;1.37;;;2.20;99.90;;;;;;5158615;28;20196;-78
2021/03/04 12:39:41;;;;;;;2.43;1.03;;;2.10;99.90;;;;;;5154993;28;20255;-80
2021/03/04 12:42:13;;;;;;;3.83;1.23;;;2.20;99.90;;;;;;5153447;28;20226;-77
2021/03/04 12:44:44;;;;;;;3.10;1.27;;;2.30;99.90;;;;;;5146681;28;20295;-77
2021/03/04 12:47:16;;;;;;;4.13;1.27;;;2.30;99.90;;;;;;5150308;28;20658;-77
2021/03/04 12:49:51;;;;;;;2.83;1.00;;;2.30;99.90;;;;;;5147750;28;20287;-80
2021/03/04 12:52:23;;;;;;;3.27;1.10;;;2.40;99.90;;;;;;5146649;28;20199;-76
2021/03/04 12:54:55;;;;;;;5.13;1.00;;;2.40;99.90;;;;;;5130459;28;20208;-77
2021/03/04 12:57:26;;;;;;;4.43;1.40;;;2.40;99.90;;;;;;5146986;28;20189;-78
2021/03/04 12:59:59;;;;;;;3.10;1.00;;;2.50;99.90;;;;;;5148377;28;20220;-75
2021/03/04 13:02:31;;;;;;;4.73;1.20;;;2.50;99.90;;;;;;5147627;28;20196;-77
2021/03/04 13:05:03;;;;;;;4.97;1.10;;;2.50;99.90;;;;;;5147619;28;20196;-80
2021/03/04 13:07:36;;;;;;;5.37;1.10;;;2.50;99.90;;;;;;5147179;28;20192;-76
2021/03/04 13:10:09;;;;;;;3.23;0.80;;;2.50;99.90;;;;;;5148786;28;20228;-78
2021/03/04 13:12:43;;;;;;;2.67;0.83;;;2.50;99.90;;;;;;5131368;28;20279;-79
2021/03/04 13:15:18;;;;;;;2.73;1.23;;;2.50;99.90;;;;;;5152357;28;20226;-76
2021/03/04 13:17:50;;;;;;;9.43;1.10;;;2.50;99.90;;;;;;5136164;28;20192;-77
2021/03/04 13:24:11;;;;;;;3.70;1.00;;;2.60;99.90;;;;;;5149181;28;20264;-79
2021/03/04 13:26:43;;;;;;;5.40;1.13;;;2.60;99.90;;;;;;5148278;28;20192;-82
2021/03/04 13:29:18;;;;;;;3.47;1.10;;;2.60;99.90;;;;;;5147675;28;20189;-76
2021/03/04 13:31:50;;;;;;;4.40;1.10;;;2.50;99.90;;;;;;5148036;28;20273;-76
2021/03/04 13:34:23;;;;;;;9.03;1.30;;;2.50;99.90;;;;;;5149212;28;20320;-76
2021/03/04 13:40:44;;;;;;;5.37;1.27;;;2.40;99.90;;;;;;5059223;28;20206;-77
2021/03/04 13:43:21;;;;;;;4.70;1.00;;;2.30;99.90;;;;;;5149981;28;20199;-77
2021/03/04 13:45:56;;;;;;;4.57;1.07;;;2.00;99.90;;;;;;5149811;28;20290;-78
2021/03/04 13:48:28;;;;;;;6.27;1.40;;;1.80;99.90;;;;;;5132069;28;20673;-78
2021/03/04 13:51:01;;;;;;;4.07;1.40;;;1.60;99.90;;;;;;5148985;28;20196;-79
2021/03/04 13:53:33;;;;;;;3.73;1.07;;;1.60;99.90;;;;;;5149075;28;20630;-78
2021/03/04 13:56:04;;;;;;;5.63;1.70;;;1.50;99.90;;;;;;5146304;28;20206;-81
2021/03/04 13:58:36;;;;;;;3.80;1.50;;;1.50;99.90;;;;;;5147890;28;20303;-79
2021/03/04 14:01:08;;;;;;;4.97;1.80;;;1.50;99.90;;;;;;5148489;28;20204;-77